Time;durP1;ratioP1;P1;durP2;ratioP2;P2;SDS_P1;SDS_P2;PMS_P1;PMS_P2;Temp;Humidity;BMP_temperature;BMP_pressure;BME280_temperature;BME280_humidity;BME280_pressure;Samples;Min_cycle;Max_cycle;Signal;HPM_P1;HPM_P2
2022/02/25 00:02:16;;;;;;;8.40;2.22;;;4.40;99.90;;;;;;5008948;28;20029;-86
2022/02/25 00:04:41;;;;;;;6.30;1.30;;;4.30;99.90;;;;;;5027066;28;20030;-84
2022/02/25 00:07:07;;;;;;;6.55;1.75;;;4.20;99.90;;;;;;5028906;28;20030;-83
2022/02/25 00:09:33;;;;;;;4.57;2.08;;;4.30;99.90;;;;;;5024874;28;20033;-86
2022/02/25 00:11:59;;;;;;;7.78;1.15;;;4.30;99.90;;;;;;5017932;28;20041;-84
2022/02/25 00:14:25;;;;;;;4.72;1.33;;;4.20;99.90;;;;;;5022498;28;20123;-88
2022/02/25 00:16:51;;;;;;;3.40;1.40;;;4.20;99.90;;;;;;5010358;28;20165;-90
2022/02/25 00:19:18;;;;;;;5.32;1.63;;;4.30;99.90;;;;;;5008431;28;20420;-87
2022/02/25 00:21:44;;;;;;;3.85;1.30;;;4.20;99.90;;;;;;5013614;28;20030;-87
2022/02/25 00:24:10;;;;;;;7.55;1.48;;;4.30;99.90;;;;;;5007794;28;20129;-88
2022/02/25 00:26:36;;;;;;;7.18;1.77;;;5.20;99.90;;;;;;5004599;28;20503;-87
2022/02/25 00:29:04;;;;;;;8.35;1.63;;;4.30;99.90;;;;;;5026827;28;20022;-86
2022/02/25 00:31:30;;;;;;;5.65;1.20;;;4.30;99.90;;;;;;5024984;28;20030;-84
2022/02/25 00:33:55;;;;;;;4.90;1.20;;;4.30;99.90;;;;;;5008411;28;20076;-79
2022/02/25 00:36:21;;;;;;;6.05;1.48;;;4.20;99.90;;;;;;5006473;28;20038;-86
2022/02/25 00:38:47;;;;;;;5.28;1.30;;;4.40;99.90;;;;;;5023522;28;20034;-85
2022/02/25 00:41:12;;;;;;;7.75;1.17;;;4.20;99.90;;;;;;5007892;28;20022;-83
2022/02/25 00:43:38;;;;;;;5.60;2.05;;;4.20;99.90;;;;;;5004195;28;20030;-82
2022/02/25 00:46:04;;;;;;;5.78;1.50;;;4.30;99.90;;;;;;5017059;28;20062;-86
2022/02/25 00:48:30;;;;;;;13.70;2.42;;;4.20;99.90;;;;;;5023279;28;20060;-87
2022/02/25 00:50:55;;;;;;;6.72;1.55;;;4.30;99.90;;;;;;5012986;28;20033;-82
2022/02/25 00:53:21;;;;;;;6.35;1.35;;;5.10;99.90;;;;;;5023976;28;20038;-86
2022/02/25 00:55:46;;;;;;;12.20;1.60;;;4.20;99.90;;;;;;5026954;28;20037;-82
2022/02/25 00:58:13;;;;;;;7.13;1.42;;;4.20;99.90;;;;;;5025616;28;20034;-83
2022/02/25 01:00:39;;;;;;;5.28;1.52;;;4.60;99.90;;;;;;5023816;28;20026;-85
2022/02/25 01:03:04;;;;;;;8.20;1.70;;;4.00;99.90;;;;;;5016047;28;20045;-83
2022/02/25 01:05:30;;;;;;;6.53;1.45;;;4.10;99.90;;;;;;5010149;28;20029;-85
2022/02/25 01:07:55;;;;;;;9.05;1.88;;;4.10;99.90;;;;;;5011808;28;20030;-84
2022/02/25 01:10:22;;;;;;;6.47;2.17;;;4.40;99.90;;;;;;5009746;28;20026;-82
2022/02/25 01:12:48;;;;;;;8.23;1.73;;;3.80;99.90;;;;;;5022349;28;20080;-81
2022/02/25 01:15:15;;;;;;;3.92;1.58;;;4.00;99.90;;;;;;5007343;28;20030;-85
2022/02/25 01:17:43;;;;;;;6.82;1.92;;;5.20;99.90;;;;;;5034119;28;20141;-86
2022/02/25 01:20:09;;;;;;;6.55;1.30;;;3.90;99.90;;;;;;5035337;28;20045;-85
2022/02/25 01:22:35;;;;;;;7.15;1.30;;;3.90;99.90;;;;;;5034966;28;20013;-85
2022/02/25 01:25:01;;;;;;;10.00;1.73;;;3.90;99.90;;;;;;5033521;28;20044;-84
2022/02/25 01:27:28;;;;;;;9.50;1.65;;;3.90;99.90;;;;;;5033266;28;20022;-87
2022/02/25 01:29:54;;;;;;;6.00;1.33;;;4.00;99.90;;;;;;5007764;28;20048;-85
2022/02/25 01:32:20;;;;;;;10.55;2.22;;;4.70;99.90;;;;;;5024749;28;20050;-84
2022/02/25 01:34:45;;;;;;;8.20;2.40;;;4.10;99.90;;;;;;5007157;28;20097;-83
2022/02/25 01:37:11;;;;;;;7.65;2.60;;;3.70;99.90;;;;;;5005805;28;20064;-86
2022/02/25 01:39:36;;;;;;;8.10;1.65;;;4.10;99.90;;;;;;5006696;28;20026;-85
2022/02/25 01:42:05;;;;;;;8.93;1.67;;;5.20;99.90;;;;;;5026911;28;20022;-85
2022/02/25 01:44:30;;;;;;;9.05;1.48;;;4.00;99.90;;;;;;5009756;28;20491;-83
2022/02/25 01:47:03;;;;;;;10.05;2.10;;;4.00;99.90;;;;;;5008995;28;20034;-81
2022/02/25 01:49:29;;;;;;;11.63;2.30;;;4.10;99.90;;;;;;5026897;28;20029;-87
2022/02/25 01:51:59;;;;;;;8.50;1.70;;;4.10;99.90;;;;;;5002301;28;20056;-85
2022/02/25 01:54:26;;;;;;;8.05;2.72;;;4.10;99.90;;;;;;5029887;28;20093;-84
2022/02/25 01:56:55;;;;;;;15.60;2.25;;;4.20;99.90;;;;;;5026786;28;20049;-81
2022/02/25 01:59:21;;;;;;;6.00;1.90;;;4.10;99.90;;;;;;5022777;28;20034;-83
2022/02/25 02:01:47;;;;;;;6.53;1.73;;;4.00;99.90;;;;;;5019749;28;20036;-81
2022/02/25 02:04:12;;;;;;;6.75;1.60;;;4.10;99.90;;;;;;5000647;28;20089;-82
2022/02/25 02:06:39;;;;;;;15.60;2.10;;;4.10;99.90;;;;;;4998890;28;20022;-83
2022/02/25 02:09:06;;;;;;;5.30;1.55;;;4.10;99.90;;;;;;4998042;28;20033;-85
2022/02/25 02:11:33;;;;;;;10.13;2.67;;;4.50;99.90;;;;;;5016251;28;20097;-86
2022/02/25 02:14:00;;;;;;;7.43;1.67;;;4.10;99.90;;;;;;4996655;28;20112;-85
2022/02/25 02:16:27;;;;;;;10.20;1.67;;;4.40;99.90;;;;;;4998732;28;20046;-83
2022/02/25 02:18:53;;;;;;;9.50;1.58;;;4.10;99.90;;;;;;4996632;28;20022;-85
2022/02/25 02:21:25;;;;;;;8.27;1.55;;;4.10;99.90;;;;;;5014507;28;20026;-86
2022/02/25 02:23:53;;;;;;;4.95;1.38;;;4.40;99.90;;;;;;4998869;28;20022;-87
2022/02/25 02:26:20;;;;;;;8.82;1.70;;;4.20;99.90;;;;;;4993148;28;20034;-86
2022/02/25 02:28:46;;;;;;;5.53;1.67;;;4.20;99.90;;;;;;4999038;28;20057;-84
2022/02/25 02:31:12;;;;;;;5.97;1.40;;;4.20;99.90;;;;;;4998836;28;20033;-83
2022/02/25 02:33:38;;;;;;;6.28;1.75;;;4.10;99.90;;;;;;5000421;28;20045;-85
2022/02/25 02:36:04;;;;;;;11.40;1.90;;;4.10;99.90;;;;;;5014556;28;20297;-84
2022/02/25 02:38:30;;;;;;;9.60;1.70;;;4.10;99.90;;;;;;5015720;28;20044;-85
2022/02/25 02:40:56;;;;;;;4.57;1.35;;;4.00;99.90;;;;;;5013897;28;20026;-84
2022/02/25 02:43:22;;;;;;;7.25;1.40;;;4.10;99.90;;;;;;5010003;28;20045;-84
2022/02/25 02:45:48;;;;;;;5.95;1.42;;;4.10;99.90;;;;;;5015635;28;20022;-87
2022/02/25 02:48:14;;;;;;;11.65;2.00;;;3.90;99.90;;;;;;5011902;28;20029;-85
2022/02/25 02:50:40;;;;;;;6.97;1.50;;;4.10;99.90;;;;;;4999926;28;20049;-82
2022/02/25 02:53:06;;;;;;;6.90;2.13;;;4.10;99.90;;;;;;5014822;28;20772;-83
2022/02/25 02:55:31;;;;;;;9.30;1.73;;;4.30;99.90;;;;;;5013273;28;20093;-81
2022/02/25 02:57:57;;;;;;;10.95;1.70;;;4.00;99.90;;;;;;4999443;28;20030;-86
2022/02/25 03:00:23;;;;;;;7.80;1.63;;;4.60;99.90;;;;;;5015447;28;20041;-85
2022/02/25 03:02:48;;;;;;;15.25;1.83;;;4.10;99.90;;;;;;4999863;28;20030;-84
2022/02/25 03:05:17;;;;;;;8.23;1.65;;;4.00;99.90;;;;;;4998346;28;20554;-80
2022/02/25 03:07:42;;;;;;;8.48;1.30;;;4.10;99.90;;;;;;5000533;28;20033;-83
2022/02/25 03:10:10;;;;;;;8.57;1.40;;;4.40;99.90;;;;;;5019569;28;20034;-87
2022/02/25 03:12:36;;;;;;;10.98;1.80;;;4.70;99.90;;;;;;5008577;28;20057;-86
2022/02/25 03:15:03;;;;;;;7.75;1.63;;;4.50;99.90;;;;;;5004209;28;20037;-84
2022/02/25 03:17:29;;;;;;;7.43;1.40;;;3.90;99.90;;;;;;4997837;28;20048;-83
2022/02/25 03:19:54;;;;;;;13.77;3.03;;;4.00;99.90;;;;;;4998160;28;20041;-86
2022/02/25 03:22:20;;;;;;;8.27;1.80;;;4.80;99.90;;;;;;5021876;28;20675;-84
2022/02/25 03:24:46;;;;;;;4.57;1.45;;;3.90;99.90;;;;;;5006456;28;20044;-83
2022/02/25 03:27:11;;;;;;;9.73;1.80;;;3.80;99.90;;;;;;5004107;28;20038;-84
2022/02/25 03:29:37;;;;;;;10.52;1.90;;;3.70;99.90;;;;;;5018698;28;20041;-85
2022/02/25 03:32:03;;;;;;;6.75;1.58;;;3.70;99.90;;;;;;5018787;28;20044;-86
2022/02/25 03:34:29;;;;;;;14.48;2.33;;;3.70;99.90;;;;;;5000699;28;20034;-84
2022/02/25 03:36:54;;;;;;;8.43;1.50;;;3.70;99.90;;;;;;5000918;28;20065;-83
2022/02/25 03:39:20;;;;;;;8.65;1.90;;;3.70;99.90;;;;;;5000838;28;20033;-86
2022/02/25 03:41:45;;;;;;;6.57;1.55;;;3.60;99.90;;;;;;5001003;28;20033;-86
2022/02/25 03:44:11;;;;;;;18.85;2.55;;;2.90;99.90;;;;;;5019892;28;20506;-83
2022/02/25 03:46:37;;;;;;;4.68;1.70;;;3.60;99.90;;;;;;5019996;28;20092;-85
2022/02/25 03:49:02;;;;;;;7.85;1.75;;;3.70;99.90;;;;;;5002110;28;20101;-84
2022/02/25 03:51:29;;;;;;;10.18;1.60;;;3.60;99.90;;;;;;5020771;28;20042;-83
2022/02/25 03:53:55;;;;;;;7.65;1.95;;;3.60;99.90;;;;;;5002368;28;20033;-83
2022/02/25 03:56:20;;;;;;;10.70;1.63;;;3.60;99.90;;;;;;5002727;28;20068;-86
2022/02/25 03:58:46;;;;;;;12.98;2.25;;;4.00;99.90;;;;;;5001023;28;20075;-86
2022/02/25 04:01:11;;;;;;;10.77;2.20;;;3.60;99.90;;;;;;5020612;28;20586;-86
2022/02/25 04:03:38;;;;;;;10.88;1.98;;;3.60;99.90;;;;;;5020619;28;20037;-86
2022/02/25 04:06:03;;;;;;;7.93;1.60;;;3.60;99.90;;;;;;5003175;28;20032;-84
2022/02/25 04:08:30;;;;;;;8.93;2.65;;;3.50;99.90;;;;;;5007008;28;20081;-85
2022/02/25 04:10:55;;;;;;;6.32;1.75;;;3.50;99.90;;;;;;4985790;28;20049;-86
2022/02/25 04:13:21;;;;;;;9.63;1.80;;;3.50;99.90;;;;;;4998906;28;20041;-86
2022/02/25 04:15:47;;;;;;;7.13;2.47;;;3.60;99.90;;;;;;5003398;28;20037;-84
2022/02/25 04:18:12;;;;;;;12.85;2.15;;;3.60;99.90;;;;;;5018977;28;20041;-85
2022/02/25 04:20:38;;;;;;;11.25;1.83;;;4.60;99.90;;;;;;5025246;28;20014;-86
2022/02/25 04:23:04;;;;;;;8.73;1.75;;;3.50;99.90;;;;;;5005658;28;20018;-87
2022/02/25 04:25:30;;;;;;;7.72;1.70;;;3.50;99.90;;;;;;5007420;28;20053;-84
2022/02/25 04:27:56;;;;;;;11.98;1.70;;;3.60;99.90;;;;;;5022748;28;20022;-85
2022/02/25 04:30:23;;;;;;;8.32;1.83;;;3.50;99.90;;;;;;5006634;28;20026;-86
2022/02/25 04:32:50;;;;;;;6.38;1.27;;;3.50;99.90;;;;;;5018325;28;20022;-84
2022/02/25 04:35:16;;;;;;;7.57;2.08;;;3.50;99.90;;;;;;5000495;28;20022;-85
2022/02/25 04:37:41;;;;;;;12.02;2.22;;;3.60;99.90;;;;;;5018836;28;20046;-85
2022/02/25 04:40:08;;;;;;;7.82;1.73;;;3.60;99.90;;;;;;5017864;28;20048;-82
2022/02/25 04:42:34;;;;;;;9.63;1.70;;;3.60;99.90;;;;;;4998617;28;20041;-82
2022/02/25 04:45:00;;;;;;;13.48;1.90;;;3.50;99.90;;;;;;4994809;28;20085;-81
2022/02/25 04:47:25;;;;;;;5.45;1.98;;;3.70;99.90;;;;;;4994276;28;20029;-84
2022/02/25 04:49:51;;;;;;;10.88;2.25;;;3.60;99.90;;;;;;4996632;28;20030;-82
2022/02/25 04:52:18;;;;;;;8.02;2.40;;;3.80;99.90;;;;;;5009807;28;20029;-82
2022/02/25 04:54:45;;;;;;;9.88;2.17;;;3.70;99.90;;;;;;4998011;28;20038;-82
2022/02/25 04:57:11;;;;;;;6.55;1.77;;;3.70;99.90;;;;;;5000541;28;20061;-80
2022/02/25 04:59:37;;;;;;;7.75;1.80;;;3.70;99.90;;;;;;5005243;28;20165;-82
2022/02/25 05:02:03;;;;;;;10.52;2.03;;;3.70;99.90;;;;;;5007736;28;20026;-85
2022/02/25 05:04:29;;;;;;;10.40;2.00;;;3.10;99.90;;;;;;5020557;28;20038;-83
2022/02/25 05:06:54;;;;;;;10.20;2.78;;;3.60;99.90;;;;;;5019137;28;20026;-83
2022/02/25 05:09:20;;;;;;;6.95;2.00;;;3.70;99.90;;;;;;5009176;28;20042;-82
2022/02/25 05:11:46;;;;;;;11.98;3.78;;;4.70;99.90;;;;;;5016824;28;20117;-82
2022/02/25 05:22:25;;;;;;;8.65;2.45;;;3.60;99.90;;;;;;5011252;28;20115;-80
2022/02/25 05:24:51;;;;;;;10.10;2.72;;;3.80;99.90;;;;;;4999455;28;20026;-83
2022/02/25 05:27:17;;;;;;;10.55;3.22;;;3.60;99.90;;;;;;5011407;28;20026;-80
2022/02/25 05:29:43;;;;;;;9.02;2.65;;;4.40;99.90;;;;;;4993450;28;20038;-81
2022/02/25 05:32:08;;;;;;;6.47;2.30;;;3.50;99.90;;;;;;5012544;28;20085;-85
2022/02/25 05:34:34;;;;;;;13.80;3.55;;;3.50;99.90;;;;;;5005818;28;20030;-83
2022/02/25 05:37:00;;;;;;;8.02;2.28;;;4.60;99.90;;;;;;5019974;28;20038;-84
2022/02/25 05:39:25;;;;;;;10.82;2.00;;;4.80;99.90;;;;;;4995013;28;20257;-83
2022/02/25 05:41:51;;;;;;;11.35;2.65;;;3.50;99.90;;;;;;4978400;28;20057;-85
2022/02/25 05:44:17;;;;;;;9.35;2.38;;;3.60;99.90;;;;;;5017186;28;20037;-81
2022/02/25 05:46:42;;;;;;;9.35;2.60;;;4.60;99.90;;;;;;5013530;28;20155;-84
2022/02/25 05:49:08;;;;;;;11.25;2.50;;;4.40;99.90;;;;;;4976395;28;20030;-87
2022/02/25 05:51:34;;;;;;;6.47;2.15;;;5.00;99.90;;;;;;5011695;28;20025;-84
2022/02/25 05:54:00;;;;;;;13.10;2.33;;;4.80;99.90;;;;;;5009883;28;20979;-81
2022/02/25 05:56:26;;;;;;;10.82;2.30;;;3.60;99.90;;;;;;4993522;28;20026;-84
2022/02/25 05:58:52;;;;;;;13.57;2.78;;;2.40;99.90;;;;;;5000230;28;20114;-82
2022/02/25 06:01:18;;;;;;;7.88;2.20;;;3.50;99.90;;;;;;4996761;28;20439;-84
2022/02/25 06:03:44;;;;;;;14.27;3.65;;;4.70;99.90;;;;;;5011005;28;20018;-85
2022/02/25 06:06:10;;;;;;;14.48;2.38;;;3.50;99.90;;;;;;4996789;28;20463;-87
2022/02/25 06:08:36;;;;;;;10.32;2.13;;;3.50;99.90;;;;;;5007929;28;20590;-86
2022/02/25 06:11:02;;;;;;;8.98;2.40;;;3.50;99.90;;;;;;5008865;28;20049;-87
2022/02/25 06:13:28;;;;;;;8.25;2.03;;;4.50;99.90;;;;;;4997517;28;20034;-81
2022/02/25 06:15:54;;;;;;;8.90;2.22;;;3.40;99.90;;;;;;5008473;28;20080;-86
2022/02/25 06:18:19;;;;;;;10.27;2.15;;;3.40;99.90;;;;;;4997415;28;20037;-85
2022/02/25 06:20:45;;;;;;;7.20;1.90;;;3.40;99.90;;;;;;5015990;28;20034;-81
2022/02/25 06:23:11;;;;;;;9.93;1.90;;;;;;;;;;5015719;28;20518;-81
2022/02/25 06:25:37;;;;;;;10.20;2.03;;;3.30;99.90;;;;;;5024912;28;20050;-85
2022/02/25 06:28:04;;;;;;;9.70;2.38;;;3.30;99.90;;;;;;5005731;28;20038;-85
2022/02/25 06:30:30;;;;;;;9.13;1.98;;;;;;;;;;5018312;28;20048;-83
2022/02/25 06:32:56;;;;;;;8.23;1.73;;;;;;;;;;5017596;28;20037;-82
2022/02/25 06:35:26;;;;;;;10.27;2.45;;;;;;;;;;5001954;28;20026;-85
2022/02/25 06:37:53;;;;;;;11.73;2.20;;;;;;;;;;5016103;28;20038;-83
2022/02/25 06:40:19;;;;;;;10.70;1.90;;;;;;;;;;5004635;28;20046;-82
2022/02/25 06:42:45;;;;;;;7.63;2.40;;;;;;;;;;5029992;28;20030;-85
2022/02/25 06:45:11;;;;;;;13.40;2.75;;;;;;;;;;5014666;28;20030;-81
2022/02/25 06:47:38;;;;;;;11.25;2.33;;;;;;;;;;5009787;28;20038;-86
2022/02/25 06:50:05;;;;;;;7.50;1.98;;;3.50;99.90;;;;;;5011198;28;20526;-84
2022/02/25 06:52:31;;;;;;;9.82;2.10;;;;;;;;;;5020430;28;20033;-88
2022/02/25 06:54:57;;;;;;;10.90;2.83;;;;;;;;;;5013231;28;20018;-84
2022/02/25 06:57:23;;;;;;;13.45;3.63;;;;;;;;;;5028107;28;20034;-88
2022/02/25 06:59:48;;;;;;;10.77;2.70;;;3.40;99.90;;;;;;5027958;28;20061;-83
2022/02/25 07:02:14;;;;;;;11.55;2.42;;;;;;;;;;5023407;28;20480;-86
2022/02/25 07:04:40;;;;;;;7.75;2.40;;;;;;;;;;4995386;28;20037;-85
2022/02/25 07:07:06;;;;;;;11.65;1.98;;;3.40;99.90;;;;;;5008742;28;20030;-87
2022/02/25 07:09:32;;;;;;;7.85;1.90;;;3.40;99.90;;;;;;5029301;28;20034;-85
2022/02/25 07:11:58;;;;;;;8.65;2.45;;;;;;;;;;5011496;28;20021;-84
2022/02/25 07:14:24;;;;;;;8.98;2.13;;;;;;;;;;5013215;28;20004;-87
2022/02/25 07:16:50;;;;;;;12.52;2.80;;;;;;;;;;5028726;28;20026;-83
2022/02/25 07:19:16;;;;;;;6.95;2.10;;;;;;;;;;5026929;28;20041;-87
2022/02/25 07:21:42;;;;;;;10.93;2.42;;;;;;;;;;5027663;28;20046;-82
2022/02/25 07:24:08;;;;;;;12.18;2.35;;;3.70;99.90;;;;;;5028076;28;20049;-86
2022/02/25 07:26:34;;;;;;;10.60;2.38;;;;;;;;;;5014530;28;20017;-83
2022/02/25 07:29:00;;;;;;;15.45;2.55;;;;;;;;;;5012754;28;20049;-80
2022/02/25 07:31:26;;;;;;;10.95;2.30;;;;;;;;;;5010049;28;20505;-81
2022/02/25 07:33:52;;;;;;;13.63;2.53;;;;;;;;;;5006806;28;20030;-83
2022/02/25 07:36:18;;;;;;;8.80;2.40;;;;;;;;;;5011090;28;21098;-83
2022/02/25 07:38:44;;;;;;;7.95;2.30;;;;;;;;;;5033441;28;20037;-86
2022/02/25 07:41:10;;;;;;;10.00;2.22;;;;;;;;;;5031844;28;20734;-85
2022/02/25 07:43:37;;;;;;;7.80;2.00;;;;;;;;;;5016512;28;20038;-83
2022/02/25 07:46:02;;;;;;;8.18;2.00;;;3.70;99.90;;;;;;5032185;28;20093;-82
2022/02/25 07:48:28;;;;;;;6.38;2.03;;;;;;;;;;5037407;28;20022;-87
2022/02/25 07:50:54;;;;;;;11.73;2.30;;;;;;;;;;5016926;28;20098;-85
2022/02/25 07:53:20;;;;;;;9.77;2.20;;;;;;;;;;5028986;28;20034;-82
2022/02/25 07:55:46;;;;;;;10.88;2.30;;;3.80;99.90;;;;;;5010720;28;20030;-85
2022/02/25 07:58:12;;;;;;;9.68;2.80;;;;;;;;;;5007140;28;20042;-80
2022/02/25 08:00:39;;;;;;;9.25;2.40;;;;;;;;;;5023168;28;21026;-83
2022/02/25 08:03:05;;;;;;;6.50;2.25;;;;;;;;;;5013089;28;20090;-84
2022/02/25 08:05:32;;;;;;;13.30;3.13;;;4.20;99.90;;;;;;5008680;28;20026;-83
2022/02/25 08:08:03;;;;;;;12.32;2.58;;;4.20;99.90;;;;;;5006201;28;20495;-81
2022/02/25 08:10:32;;;;;;;12.90;2.35;;;4.30;99.90;;;;;;5002084;28;20033;-82
2022/02/25 08:12:58;;;;;;;9.90;2.38;;;;;;;;;;5010506;28;20021;-85
2022/02/25 08:15:24;;;;;;;14.48;3.20;;;;;;;;;;5008906;28;20042;-82
2022/02/25 08:17:50;;;;;;;11.98;2.35;;;;;;;;;;5030696;28;20041;-82
2022/02/25 08:20:16;;;;;;;11.52;2.28;;;;;;;;;;5028331;28;20030;-83
2022/02/25 08:22:43;;;;;;;11.57;2.47;;;4.40;99.90;;;;;;5030729;28;20030;-84
2022/02/25 08:25:09;;;;;;;9.32;2.03;;;4.40;99.90;;;;;;5012950;28;20041;-80
2022/02/25 08:27:36;;;;;;;8.43;2.10;;;;;;;;;;5031255;28;20057;-83
2022/02/25 08:30:07;;;;;;;14.02;2.38;;;4.50;99.90;;;;;;5031862;28;20101;-81
2022/02/25 08:32:32;;;;;;;;;;;4.60;99.90;;;;;;5017260;28;20026;-84
2022/02/25 08:34:58;;;;;;;10.60;2.35;;;;;;;;;;5013686;28;19981;-82
2022/02/25 08:37:24;;;;;;;11.75;2.60;;;;;;;;;;5012896;28;20057;-84
2022/02/25 08:39:50;;;;;;;8.73;2.58;;;;;;;;;;5013918;28;20096;-83
2022/02/25 08:42:16;;;;;;;10.52;1.75;;;;;;;;;;5032094;28;20022;-80
2022/02/25 08:44:42;;;;;;;6.68;2.00;;;5.20;99.90;;;;;;5014333;28;20022;-84
2022/02/25 08:47:08;;;;;;;6.78;2.10;;;;;;;;;;5019715;28;20026;-81
2022/02/25 08:49:35;;;;;;;11.13;2.40;;;;;;;;;;5029008;28;20029;-83
2022/02/25 08:52:01;;;;;;;10.18;2.00;;;;;;;;;;5032444;28;20045;-83
2022/02/25 08:54:27;;;;;;;8.43;2.38;;;;;;;;;;5032611;28;20059;-84
2022/02/25 08:56:53;;;;;;;11.48;2.05;;;5.60;99.90;;;;;;5015276;28;20033;-84
2022/02/25 08:59:18;;;;;;;15.02;2.97;;;5.70;99.90;;;;;;5029500;28;20025;-86
2022/02/25 09:01:44;;;;;;;13.15;2.40;;;5.60;99.90;;;;;;5015913;28;20056;-82
2022/02/25 09:04:09;;;;;;;11.90;2.08;;;7.20;99.90;;;;;;5031826;28;20244;-80
2022/02/25 09:06:40;;;;;;;13.60;2.20;;;5.50;99.90;;;;;;5019247;28;20021;-82
2022/02/25 09:09:06;;;;;;;11.55;3.33;;;6.90;99.90;;;;;;5031215;28;20069;-84
2022/02/25 09:11:32;;;;;;;10.15;2.28;;;;;;;;;;5015057;28;20022;-86
2022/02/25 09:13:58;;;;;;;10.32;2.20;;;;;;;;;;5009543;28;20032;-89
2022/02/25 09:16:24;;;;;;;11.85;2.78;;;;;;;;;;5024319;28;20028;-85
2022/02/25 09:18:50;;;;;;;17.20;2.45;;;5.60;99.90;;;;;;5008692;28;20058;-85
2022/02/25 09:21:17;;;;;;;9.65;2.83;;;7.30;99.90;;;;;;5030440;28;20116;-80
2022/02/25 09:23:44;;;;;;;15.73;4.07;;;;;;;;;;5014599;28;20006;-83
2022/02/25 09:26:10;;;;;;;13.63;3.25;;;;;;;;;;5028727;28;20044;-83
2022/02/25 09:28:36;;;;;;;12.52;2.80;;;;;;;;;;5026230;28;20050;-83
2022/02/25 09:31:02;;;;;;;15.95;3.10;;;;;;;;;;5027165;28;20025;-86
2022/02/25 09:33:28;;;;;;;12.45;2.55;;;;;;;;;;5008726;28;20036;-86
2022/02/25 09:35:54;;;;;;;9.00;2.20;;;;;;;;;;5026337;28;20033;-86
2022/02/25 09:38:20;;;;;;;8.88;2.03;;;;;;;;;;5026072;28;20026;-86
2022/02/25 09:40:46;;;;;;;15.55;2.58;;;;;;;;;;5010911;28;20037;-80
2022/02/25 09:43:12;;;;;;;9.75;2.20;;;;;;;;;;5024840;28;20030;-84
2022/02/25 09:45:38;;;;;;;8.80;2.30;;;;;;;;;;5023376;28;20053;-84
2022/02/25 09:48:07;;;;;;;5.53;1.77;;;;;;;;;;5024017;28;20026;-81
2022/02/25 09:50:33;;;;;;;10.35;2.83;;;;;;;;;;5025218;28;20022;-85
2022/02/25 09:52:59;;;;;;;16.00;2.13;;;;;;;;;;5011263;28;20032;-83
2022/02/25 09:55:27;;;;;;;7.53;2.10;;;6.40;99.90;;;;;;5031815;28;20085;-81
2022/02/25 09:57:54;;;;;;;7.18;2.22;;;6.40;99.90;;;;;;5025633;28;20029;-82
2022/02/25 10:00:21;;;;;;;13.23;2.40;;;;;;;;;;5012103;28;20105;-86
2022/02/25 10:02:54;;;;;;;8.43;2.22;;;6.30;99.90;;;;;;5028248;28;20026;-83
2022/02/25 10:05:22;;;;;;;12.00;2.10;;;;;;;;;;5024500;28;20069;-87
2022/02/25 10:07:48;;;;;;;8.23;1.95;;;;;;;;;;5019748;28;20535;-85
2022/02/25 10:10:16;;;;;;;15.00;2.67;;;6.30;99.90;;;;;;5028475;28;20041;-86
2022/02/25 10:12:46;;;;;;;13.45;3.97;;;;;;;;;;5028380;28;20014;-84
2022/02/25 10:15:12;;;;;;;7.32;1.85;;;;;;;;;;5033190;28;20021;-86
2022/02/25 10:17:38;;;;;;;12.63;2.22;;;;;;;;;;5011037;28;20125;-86
2022/02/25 10:20:07;;;;;;;6.80;1.52;;;;;;;;;;5019231;28;20036;-84
2022/02/25 10:22:36;;;;;;;8.18;2.17;;;6.30;99.90;;;;;;5035688;28;20038;-83
2022/02/25 10:25:07;;;;;;;11.30;2.33;;;7.90;99.90;;;;;;5018882;28;20020;-85
2022/02/25 10:27:32;;;;;;;11.07;2.45;;;6.20;99.90;;;;;;5031533;28;20011;-87
2022/02/25 10:30:13;;;;;;;12.85;2.30;;;6.10;99.90;;;;;;5016989;28;20021;-87
2022/02/25 10:32:51;;;;;;;8.73;1.95;;;6.00;99.90;;;;;;5023668;28;20029;-90
2022/02/25 10:35:37;;;;;;;12.45;1.98;;;5.90;99.90;;;;;;5010353;28;20033;-85
2022/02/25 10:41:09;;;;;;;12.35;2.10;;;6.00;99.90;;;;;;5890312;22;20293;-87
2022/02/25 10:43:45;;;;;;;11.60;1.65;;;7.00;99.90;;;;;;5049208;23;20055;-80
2022/02/25 10:46:17;;;;;;;8.82;1.92;;;6.70;99.90;;;;;;5023413;28;20033;-81
2022/02/25 10:48:46;;;;;;;13.50;3.53;;;6.10;99.90;;;;;;5005123;28;20040;-79
2022/02/25 10:51:45;;;;;;;6.25;1.90;;;5.80;99.90;;;;;;5017917;28;20030;-80
2022/02/25 10:54:18;;;;;;;7.55;1.92;;;6.40;99.90;;;;;;4986208;28;20035;-80
2022/02/25 10:56:48;;;;;;;9.82;2.20;;;6.30;99.90;;;;;;4997718;28;20384;-81
2022/02/25 10:59:17;;;;;;;12.52;2.20;;;8.40;99.90;;;;;;5003636;28;20034;-79
2022/02/25 11:01:47;;;;;;;11.45;2.20;;;7.60;99.90;;;;;;5024724;28;20014;-80
2022/02/25 11:04:57;;;;;;;11.23;2.13;;;4.70;99.90;;;;;;5008429;28;20035;-79
2022/02/25 11:07:23;;;;;;;9.13;2.05;;;6.20;99.90;;;;;;5009785;28;20037;-80
2022/02/25 11:09:53;;;;;;;10.52;2.92;;;6.00;99.90;;;;;;5008159;28;20031;-79
2022/02/25 11:12:29;;;;;;;6.57;2.30;;;6.30;99.90;;;;;;5006333;28;20054;-79
2022/02/25 11:15:02;;;;;;;11.90;2.75;;;6.00;99.90;;;;;;4986708;28;20054;-78
2022/02/25 11:17:30;;;;;;;14.52;2.65;;;6.60;99.90;;;;;;4967718;28;20400;-81
2022/02/25 11:20:02;;;;;;;11.60;2.13;;;6.50;99.90;;;;;;4968710;28;20047;-80
2022/02/25 11:22:32;;;;;;;13.65;2.70;;;6.20;99.90;;;;;;5000934;28;20157;-81
2022/02/25 11:25:02;;;;;;;8.95;2.42;;;7.40;99.90;;;;;;5026524;28;20026;-79
2022/02/25 11:27:32;;;;;;;11.80;2.75;;;5.40;99.90;;;;;;5012478;28;20037;-80
2022/02/25 11:30:19;;;;;;;8.32;2.60;;;6.40;99.90;;;;;;5015895;28;20019;-81
2022/02/25 11:33:30;;;;;;;11.10;2.47;;;6.40;99.90;;;;;;5014321;28;20098;-81
2022/02/25 11:36:06;;;;;;;14.05;2.95;;;6.90;99.90;;;;;;5015222;28;20023;-80
2022/02/25 11:38:46;;;;;;;11.32;2.50;;;5.10;99.90;;;;;;5003614;28;20026;-80
2022/02/25 11:41:24;;;;;;;10.15;2.08;;;7.40;99.90;;;;;;4999434;28;20030;-80
2022/02/25 11:44:01;;;;;;;9.98;2.55;;;7.70;99.90;;;;;;5026283;28;20034;-81
2022/02/25 11:46:46;;;;;;;8.90;2.60;;;7.70;99.90;;;;;;5029358;28;20038;-81
2022/02/25 11:49:24;;;;;;;10.05;2.20;;;9.20;99.90;;;;;;5016215;28;20038;-80
2022/02/25 11:52:02;;;;;;;10.57;1.90;;;7.80;99.90;;;;;;5016791;28;20026;-81
2022/02/25 11:54:46;;;;;;;10.68;2.20;;;7.70;99.90;;;;;;5015440;28;20030;-82
2022/02/25 11:57:12;;;;;;;14.77;2.05;;;8.10;99.90;;;;;;5031582;28;20030;-80
2022/02/25 11:59:48;;;;;;;13.13;2.45;;;6.80;99.90;;;;;;5012302;28;20098;-81
2022/02/25 12:02:25;;;;;;;11.02;2.15;;;7.70;99.90;;;;;;5012247;28;20085;-81
2022/02/25 12:04:55;;;;;;;12.95;2.00;;;7.40;99.90;;;;;;5013626;28;20019;-82
2022/02/25 12:07:51;;;;;;;11.98;2.75;;;7.80;99.90;;;;;;5015741;28;20046;-81
2022/02/25 12:10:22;;;;;;;11.27;2.22;;;5.50;99.90;;;;;;5029514;28;20037;-81
2022/02/25 12:13:04;;;;;;;9.73;2.20;;;7.70;99.90;;;;;;5006759;28;20062;-81
2022/02/25 12:15:49;;;;;;;6.28;1.90;;;7.70;99.90;;;;;;5031273;28;20033;-81
2022/02/25 12:18:19;;;;;;;9.85;2.00;;;8.90;99.90;;;;;;5017177;28;20046;-80
2022/02/25 12:20:59;;;;;;;8.02;1.95;;;7.60;99.90;;;;;;5005357;28;20532;-81
2022/02/25 12:23:51;;;;;;;14.10;2.50;;;7.50;99.90;;;;;;5011168;28;20511;-80
2022/02/25 12:26:39;;;;;;;14.55;2.20;;;6.50;99.90;;;;;;4996139;28;20093;-81
2022/02/25 12:29:42;;;;;;;8.90;2.30;;;6.50;99.90;;;;;;5025588;28;20026;-81
2022/02/25 12:32:09;;;;;;;11.75;2.45;;;7.10;99.90;;;;;;5006446;28;20483;-80
2022/02/25 12:34:45;;;;;;;11.35;2.13;;;7.10;99.90;;;;;;5009770;28;20042;-81
2022/02/25 12:37:18;;;;;;;9.68;2.10;;;7.10;99.90;;;;;;5010069;28;20022;-79
2022/02/25 12:40:08;;;;;;;15.27;2.75;;;8.20;99.90;;;;;;5013918;28;20082;-82
2022/02/25 12:42:35;;;;;;;14.43;3.45;;;;;;;;;;5003199;28;20018;-80
2022/02/25 12:45:09;;;;;;;6.93;2.38;;;7.60;99.90;;;;;;5017362;28;20064;-81
2022/02/25 12:47:48;;;;;;;11.68;2.65;;;7.70;99.90;;;;;;5017342;28;20035;-82
2022/02/25 12:50:20;;;;;;;11.40;2.28;;;7.40;99.90;;;;;;5033780;28;20058;-78
2022/02/25 12:52:47;;;;;;;9.23;2.40;;;7.80;99.90;;;;;;5046935;22;20045;-78
2022/02/25 12:55:16;;;;;;;17.05;3.80;;;7.80;99.90;;;;;;5064202;28;20033;-79
2022/02/25 12:57:43;;;;;;;10.55;3.63;;;8.20;99.90;;;;;;5063308;28;20097;-78
2022/02/25 13:00:10;;;;;;;9.93;2.38;;;8.00;99.90;;;;;;5042597;28;20032;-78
2022/02/25 13:02:36;;;;;;;10.68;2.58;;;8.00;99.90;;;;;;5062730;28;20092;-79
2022/02/25 13:05:03;;;;;;;8.70;2.10;;;8.10;99.90;;;;;;5045521;28;20018;-80
2022/02/25 13:07:30;;;;;;;10.05;2.05;;;8.20;99.90;;;;;;5046924;28;20396;-78
2022/02/25 13:09:55;;;;;;;8.23;1.90;;;8.30;99.90;;;;;;5039059;28;20024;-78
2022/02/25 13:12:23;;;;;;;8.68;2.28;;;8.30;99.90;;;;;;5062878;28;20025;-78
2022/02/25 13:14:55;;;;;;;8.50;2.05;;;8.30;99.90;;;;;;5065563;28;20047;-79
2022/02/25 13:17:27;;;;;;;15.02;3.40;;;8.40;99.90;;;;;;5048067;28;20021;-78
2022/02/25 13:20:03;;;;;;;10.52;2.80;;;8.20;99.90;;;;;;5035701;28;20127;-79
2022/02/25 13:22:37;;;;;;;11.73;2.90;;;8.20;99.90;;;;;;5047077;28;20029;-80
2022/02/25 13:25:32;;;;;;;15.55;2.42;;;8.10;99.90;;;;;;5065605;28;20020;-78
2022/02/25 13:28:02;;;;;;;11.35;3.75;;;8.00;99.90;;;;;;5019386;28;20055;-78
2022/02/25 13:30:38;;;;;;;10.73;2.60;;;7.90;99.90;;;;;;5050337;28;20021;-80